Weather at Nowy Sącz-Łososina Dolna Airfield

Public forecast

Using degrees Celsius for public forecast. Weather courtesy of forecast.io.

Closest aviation weather report (METAR) to Nowy Sącz-Łososina Dolna Airfield

Closest report is Kraków John Paul II International Airport, 38.1 nm (70.5 km) WNW.

2024/05/28 16:30 (retrieved 31 minutes ago)

EPKK 281630Z 07013KT CAVOK 23/08 Q1014

Closest aviation forecast (TAF) to Nowy Sącz-Łososina Dolna Airfield

Closest forecast is Kraków John Paul II International Airport, 38.1 nm (70.5 km) WNW.

2024/05/28 15:36 (retrieved 1 hour ago)

TAF EPKK 281430Z 2815/2915 08015G25KT 9999 FEW050 BECMG 2815/2817 09010KT BECMG 2817/2820 VRB02KT BECMG 2821/2823 31010KT TEMPO 2823/2903 BKN013 BECMG 2901/2904 25006KT PROB40 TEMPO 2911/2915 VRB16G30KT 3000 TSRA BKN040CB